Time;durP1;ratioP1;P1;durP2;ratioP2;P2;SDS_P1;SDS_P2;PMS_P1;PMS_P2;Temp;Humidity;BMP_temperature;BMP_pressure;BME280_temperature;BME280_humidity;BME280_pressure;Samples;Min_cycle;Max_cycle;Signal;HPM_P1;HPM_P2
2023/07/03 20:32:27;;;;;;;8.02;7.32;;;28.10;72.40;;;;;;5085033;27;20403;-38
2023/07/03 20:34:53;;;;;;;7.55;6.95;;;28.00;71.70;;;;;;5082913;28;20024;-37
2023/07/03 20:37:20;;;;;;;8.32;7.63;;;27.90;71.10;;;;;;5081864;28;20025;-37
2023/07/03 20:39:46;;;;;;;8.43;7.70;;;28.00;71.80;;;;;;5078156;28;20071;-36
2023/07/03 20:42:13;;;;;;;8.35;7.65;;;28.00;72.40;;;;;;5079495;28;20025;-36
2023/07/03 20:44:42;;;;;;;;;;;28.00;72.40;;;;;;5079919;28;20043;-36
2023/07/03 20:47:09;;;;;;;8.45;7.70;;;28.00;72.80;;;;;;5074956;28;19913;-36
2023/07/03 20:49:35;;;;;;;8.35;7.65;;;28.00;73.00;;;;;;5075659;28;20052;-36
2023/07/03 20:52:04;;;;;;;8.40;7.70;;;28.00;73.70;;;;;;5071114;28;20044;-36
2023/07/03 20:54:34;;;;;;;8.32;7.63;;;28.00;73.10;;;;;;5069924;28;20035;-36
2023/07/03 20:57:04;;;;;;;8.00;7.28;;;28.00;72.30;;;;;;5081195;28;20029;-36
2023/07/03 20:59:31;;;;;;;8.70;7.90;;;28.10;71.00;;;;;;5110666;28;20029;-35
2023/07/03 21:01:57;;;;;;;7.53;6.82;;;28.10;69.90;;;;;;5079816;28;20029;-35
2023/07/03 21:04:25;;;;;;;7.68;7.03;;;28.10;69.20;;;;;;5075946;28;20632;-36
2023/07/03 21:06:53;;;;;;;7.60;6.90;;;28.10;68.90;;;;;;5077779;28;20033;-37
2023/07/03 21:09:20;;;;;;;7.28;6.68;;;28.10;68.20;;;;;;5075844;28;20847;-36
2023/07/03 21:11:46;;;;;;;7.57;6.97;;;28.00;67.60;;;;;;5078415;28;20041;-36
2023/07/03 21:14:13;;;;;;;7.85;7.15;;;28.00;67.20;;;;;;5078600;28;20465;-36
2023/07/03 21:16:39;;;;;;;7.05;6.45;;;28.00;67.10;;;;;;5081621;28;20098;-36
2023/07/03 21:19:09;;;;;;;9.80;7.53;;;28.00;66.70;;;;;;5079635;28;20155;-36
2023/07/03 21:21:36;;;;;;;7.70;6.97;;;28.00;66.70;;;;;;5077463;28;20033;-36
2023/07/03 21:24:03;;;;;;;;;;;27.90;66.40;;;;;;5079148;28;20051;-36
2023/07/03 21:26:29;;;;;;;;;;;27.90;66.00;;;;;;5082950;28;19912;-36
2023/07/03 21:28:55;;;;;;;;;;;27.90;65.70;;;;;;5078626;28;19917;-37
2023/07/03 21:31:22;;;;;;;;;;;27.90;65.50;;;;;;5078430;28;19927;-36
2023/07/03 21:33:48;;;;;;;;;;;27.80;65.40;;;;;;5078594;28;19912;-37
2023/07/03 21:36:21;;;;;;;;;;;27.80;65.00;;;;;;5078185;28;20910;-37
2023/07/03 21:38:47;;;;;;;;;;;27.80;65.10;;;;;;5078266;28;19924;-36
2023/07/03 21:41:16;;;;;;;;;;;27.80;65.00;;;;;;5111195;28;19909;-36
2023/07/03 21:43:44;;;;;;;;;;;27.70;64.50;;;;;;5065532;28;19913;-37
2023/07/03 21:46:10;;;;;;;;;;;27.70;64.50;;;;;;5084972;28;19980;-36
2023/07/03 21:48:37;;;;;;;;;;;27.70;64.40;;;;;;5062579;28;19913;-36
2023/07/03 21:51:04;;;;;;;;;;;27.70;64.10;;;;;;5057399;28;19968;-36
2023/07/03 21:53:30;;;;;;;;;;;27.70;64.10;;;;;;5065018;28;19912;-36
2023/07/03 21:56:05;;;;;;;;;;;27.60;64.40;;;;;;5064322;28;19932;-37
2023/07/03 21:58:31;;;;;;;;;;;27.60;65.20;;;;;;5065022;28;20388;-37
2023/07/03 22:00:57;;;;;;;;;;;27.60;65.70;;;;;;5064378;28;19913;-36
2023/07/03 22:03:23;;;;;;;;;;;27.60;66.20;;;;;;5064812;28;19912;-37
2023/07/03 22:05:49;;;;;;;;;;;27.60;66.30;;;;;;5069963;28;19930;-37
2023/07/03 22:08:15;;;;;;;;;;;27.50;66.00;;;;;;5062591;28;20411;-37
2023/07/03 22:10:40;;;;;;;;;;;27.50;66.00;;;;;;5064440;28;20558;-37
2023/07/03 22:13:06;;;;;;;;;;;27.50;66.20;;;;;;5064411;28;19920;-38
2023/07/03 22:15:32;;;;;;;;;;;27.50;66.40;;;;;;5065710;28;20391;-37
2023/07/03 22:17:58;;;;;;;;;;;27.50;66.00;;;;;;5068749;28;19913;-37
2023/07/03 22:20:24;;;;;;;;;;;27.40;65.70;;;;;;5060660;28;19952;-37
2023/07/03 22:22:51;;;;;;;;;;;27.40;64.20;;;;;;5062552;28;19948;-37
2023/07/03 22:25:17;;;;;;;;;;;27.40;65.10;;;;;;5064186;28;20651;-38
2023/07/03 22:27:45;;;;;;;;;;;27.40;64.30;;;;;;5065516;28;19930;-37
2023/07/03 22:30:11;;;;;;;;;;;27.40;63.80;;;;;;5066994;28;19908;-37
2023/07/03 22:32:37;;;;;;;;;;;27.30;63.80;;;;;;5064945;28;19941;-37
2023/07/03 22:35:03;;;;;;;;;;;27.30;64.10;;;;;;5064098;28;20306;-37
2023/07/03 22:37:29;;;;;;;;;;;27.30;62.90;;;;;;5066252;28;19912;-37
2023/07/03 22:39:55;;;;;;;;;;;27.30;63.30;;;;;;5064209;28;19943;-39
2023/07/03 22:42:21;;;;;;;;;;;27.30;64.40;;;;;;5064557;28;19917;-37
2023/07/03 22:44:47;;;;;;;;;;;27.20;64.70;;;;;;5063751;28;19948;-36
2023/07/03 22:47:13;;;;;;;;;;;27.20;64.80;;;;;;5064480;28;19916;-37
2023/07/03 22:49:39;;;;;;;;;;;27.20;65.00;;;;;;5095852;28;19909;-37
2023/07/03 22:52:05;;;;;;;;;;;27.20;65.00;;;;;;5064160;28;19922;-38
2023/07/03 22:54:32;;;;;;;;;;;27.20;65.40;;;;;;5063177;28;19913;-36
2023/07/03 22:56:58;;;;;;;;;;;27.10;64.80;;;;;;5066452;28;19912;-36
2023/07/03 22:59:24;;;;;;;;;;;27.10;65.40;;;;;;5063480;28;19963;-36
2023/07/03 23:01:53;;;;;;;;;;;27.10;64.50;;;;;;5063471;28;20682;-36
2023/07/03 23:04:20;;;;;;;;;;;27.10;65.90;;;;;;5063641;28;19909;-36
2023/07/03 23:06:47;;;;;;;;;;;27.10;66.10;;;;;;5062695;28;19915;-36
2023/07/03 23:09:13;;;;;;;;;;;27.00;65.90;;;;;;5063963;28;19913;-36
2023/07/03 23:11:39;;;;;;;;;;;27.00;66.20;;;;;;5066817;28;19920;-37
2023/07/03 23:14:05;;;;;;;;;;;27.00;66.40;;;;;;5063157;28;20345;-36
2023/07/03 23:16:31;;;;;;;;;;;27.00;65.60;;;;;;5062971;28;20003;-37
2023/07/03 23:18:57;;;;;;;;;;;26.90;65.90;;;;;;5063744;28;20319;-36
2023/07/03 23:21:23;;;;;;;;;;;26.90;64.50;;;;;;5063700;28;19920;-36
2023/07/03 23:23:49;;;;;;;;;;;26.90;66.00;;;;;;5063297;28;19919;-36
2023/07/03 23:26:15;;;;;;;;;;;26.90;65.80;;;;;;5066332;28;19980;-37
2023/07/03 23:28:41;;;;;;;;;;;26.90;66.50;;;;;;5062835;28;19968;-36
2023/07/03 23:31:09;;;;;;;;;;;26.80;66.70;;;;;;5063058;28;19917;-36
2023/07/03 23:33:35;;;;;;;;;;;26.80;66.90;;;;;;5063415;28;19916;-36
2023/07/03 23:36:02;;;;;;;;;;;26.80;67.50;;;;;;5062780;28;19909;-36
2023/07/03 23:38:28;;;;;;;;;;;26.80;67.60;;;;;;5063339;28;19920;-36
2023/07/03 23:40:54;;;;;;;;;;;26.70;67.50;;;;;;5063746;28;19940;-36
2023/07/03 23:43:20;;;;;;;;;;;26.70;67.20;;;;;;5064148;28;19919;-36
2023/07/03 23:45:46;;;;;;;;;;;26.70;67.20;;;;;;5064573;28;19916;-36
2023/07/03 23:48:12;;;;;;;;;;;26.70;67.10;;;;;;5063778;28;19984;-36
2023/07/03 23:50:56;;;;;;;;;;;26.70;66.90;;;;;;5063153;28;20060;-36
2023/07/03 23:53:23;;;;;;;;;;;26.70;66.20;;;;;;5057524;28;19944;-36
2023/07/03 23:55:49;;;;;;;;;;;26.70;66.30;;;;;;5065395;28;19912;-37
2023/07/03 23:58:15;;;;;;;;;;;26.60;66.50;;;;;;5062651;28;20388;-36
